Hundvaag 1 weather for May 2003
Month no. 191
Obs.
Da.
Temp. Dew Point Precip. Wind
Speed
Wind gusts Cloud cover Press. Humidity Wind dir. Sunny OPT
01.05.2003 9,6   3,9 8,0   1 1004,3 93,0 292,5 1 57,5 %
02.05.2003 3,7   0,0 1,0   10 1012,1 81,0   1 82,5 %
03.05.2003 6,4   2,5 12,0   0 1007,8 87,0 22,5   52,5 %
04.05.2003 7,3   5,5 26,0   0 1011,9 82,0 315,0   40,0 %
05.05.2003 11,8   2,1 21,0   0 1007,9 67,0 337,5 1 52,5 %
06.05.2003 7,9   8,5 12,0   2 1009,6 93,0 180,0 1 55,0 %
07.05.2003 6,7   0,7 7,0   0 1014,9 93,0 292,5 1 57,5 %
08.05.2003 8,2   0,5 21,0   0 1010,7 66,0 315,0   50,0 %
09.05.2003 7,7   6,6 9,0   4 1012,3 93,0 247,5 1 62,5 %
10.05.2003 11,1   2,6 13,0   10 1012,6 87,0 225,0 1 82,5 %
11.05.2003 7,9   0,7 18,0   1 1014,5 71,0 157,5 1 55,0 %
12.05.2003 7,8   3,1 7,0   7 1012,2 81,0 135,0 1 75,0 %
13.05.2003 6,1   1,3 7,0   2 1009,6 87,0 112,5   62,5 %
14.05.2003 6,0   1,0 2,0   2 1008,0 93,0 180,0   65,0 %
15.05.2003 8,1   3,8 13,0   7 1014,1 76,0 337,5 1 70,0 %
16.05.2003 9,0   0,0 1,0   10 1015,7 93,0 112,5 1 87,5 %
17.05.2003 3,6   0,0 1,0   9 1013,1 82,0 292,5 1 80,0 %
18.05.2003 11,2   0,1 17,0   3 1007,9 66,0 157,5 1 62,5 %
19.05.2003 12,2   0,6 9,0   2 1006,7 82,0 157,5   65,0 %
20.05.2003 9,3   8,0 2,0   2 1007,7 93,0     62,5 %
21.05.2003 8,9   4,0 3,0   0 1009,5 100,0 270,0 1 60,0 %
22.05.2003 9,8   0,0 3,0   3 1013,9 93,0   1 70,0 %
23.05.2003 10,6   1,3 13,0   2 1006,9 88,0 157,5 1 62,5 %
24.05.2003 12,0   8,2 14,0   6 1007,4 72,0 157,5 1 67,5 %
25.05.2003 10,8   0,1 5,0   1 1011,4 82,0 180,0 1 65,0 %
26.05.2003 10,0   6,8 3,0   0 1013,1 100,0 180,0 1 60,0 %
27.05.2003 10,7   0,0 9,0   0 1018,0 94,0 180,0 1 60,0 %
28.05.2003 10,3   0,0 2,0   0 1020,0 100,0   1 65,0 %
29.05.2003 15,6   0,0 14,0   0 1017,1 63,0 180,0   62,5 %
30.05.2003 10,9   5,0 1,0   0 1015,6 100,0 157,5   62,5 %
31.05.2003 7,4   0,0 2,0   10 1014,0 93,0 0,0 1 85,0 %
Avrg/Sum 9,0   76,9 8,9   3,0 1011,6 85,5 197,5 22 64,4 %